sensor_id;sensor_type;location;lat;lon;timestamp;temperature;humidity
6948;DHT22;3513;47.664;9.162;2022-12-11T00:01:26;0.20;99.90
6948;DHT22;3513;47.664;9.162;2022-12-11T00:03:52;0.20;99.90
6948;DHT22;3513;47.664;9.162;2022-12-11T00:06:21;0.20;99.90
6948;DHT22;3513;47.664;9.162;2022-12-11T00:08:49;0.20;99.90
6948;DHT22;3513;47.664;9.162;2022-12-11T00:11:16;0.20;99.90
6948;DHT22;3513;47.664;9.162;2022-12-11T00:13:41;0.30;99.90
6948;DHT22;3513;47.664;9.162;2022-12-11T00:16:08;0.20;99.90
6948;DHT22;3513;47.664;9.162;2022-12-11T00:18:34;0.20;99.90
6948;DHT22;3513;47.664;9.162;2022-12-11T00:21:04;0.20;99.90
6948;DHT22;3513;47.664;9.162;2022-12-11T00:23:31;0.20;99.90
6948;DHT22;3513;47.664;9.162;2022-12-11T00:25:57;0.20;99.90
6948;DHT22;3513;47.664;9.162;2022-12-11T00:28:22;0.30;99.90
6948;DHT22;3513;47.664;9.162;2022-12-11T00:30:48;0.20;99.90
6948;DHT22;3513;47.664;9.162;2022-12-11T00:33:14;0.20;99.90
6948;DHT22;3513;47.664;9.162;2022-12-11T00:35:44;0.20;99.90
6948;DHT22;3513;47.664;9.162;2022-12-11T00:38:15;0.20;99.90
6948;DHT22;3513;47.664;9.162;2022-12-11T00:40:41;0.20;99.90
6948;DHT22;3513;47.664;9.162;2022-12-11T00:43:07;0.20;99.90
6948;DHT22;3513;47.664;9.162;2022-12-11T00:45:44;0.20;99.90
6948;DHT22;3513;47.664;9.162;2022-12-11T00:48:11;0.20;99.90
6948;DHT22;3513;47.664;9.162;2022-12-11T00:50:37;0.20;99.90
6948;DHT22;3513;47.664;9.162;2022-12-11T00:53:04;0.20;99.90
6948;DHT22;3513;47.664;9.162;2022-12-11T00:55:30;0.20;99.90
6948;DHT22;3513;47.664;9.162;2022-12-11T00:57:56;0.00;99.90
6948;DHT22;3513;47.664;9.162;2022-12-11T01:00:22;0.00;99.90
6948;DHT22;3513;47.664;9.162;2022-12-11T01:02:49;0.00;99.90
6948;DHT22;3513;47.664;9.162;2022-12-11T01:05:15;0.10;99.90
6948;DHT22;3513;47.664;9.162;2022-12-11T01:07:41;0.10;99.90
6948;DHT22;3513;47.664;9.162;2022-12-11T01:10:07;0.10;99.90
6948;DHT22;3513;47.664;9.162;2022-12-11T01:12:51;0.10;99.90
6948;DHT22;3513;47.664;9.162;2022-12-11T01:15:19;0.10;99.90
6948;DHT22;3513;47.664;9.162;2022-12-11T01:17:45;0.00;99.90
6948;DHT22;3513;47.664;9.162;2022-12-11T01:20:11;-0.10;99.90
6948;DHT22;3513;47.664;9.162;2022-12-11T01:22:37;-0.10;99.90
6948;DHT22;3513;47.664;9.162;2022-12-11T01:25:03;-0.20;99.90
6948;DHT22;3513;47.664;9.162;2022-12-11T01:27:29;-0.20;99.90
6948;DHT22;3513;47.664;9.162;2022-12-11T01:29:55;-0.30;99.90
6948;DHT22;3513;47.664;9.162;2022-12-11T01:32:20;-0.30;99.90
6948;DHT22;3513;47.664;9.162;2022-12-11T01:34:46;-0.30;99.90
6948;DHT22;3513;47.664;9.162;2022-12-11T01:37:12;-0.40;99.90
6948;DHT22;3513;47.664;9.162;2022-12-11T01:39:37;-0.40;99.90
6948;DHT22;3513;47.664;9.162;2022-12-11T01:42:03;-0.50;99.90
6948;DHT22;3513;47.664;9.162;2022-12-11T01:46:56;-0.50;99.90
6948;DHT22;3513;47.664;9.162;2022-12-11T01:49:24;-0.70;99.90
6948;DHT22;3513;47.664;9.162;2022-12-11T01:54:20;-0.70;99.90
6948;DHT22;3513;47.664;9.162;2022-12-11T01:56:49;-0.70;99.90
6948;DHT22;3513;47.664;9.162;2022-12-11T01:59:20;-0.70;99.90
6948;DHT22;3513;47.664;9.162;2022-12-11T02:02:17;-0.70;99.90
6948;DHT22;3513;47.664;9.162;2022-12-11T02:04:41;-0.80;99.90
6948;DHT22;3513;47.664;9.162;2022-12-11T02:07:08;-0.80;99.90
6948;DHT22;3513;47.664;9.162;2022-12-11T02:09:36;-0.80;99.90
6948;DHT22;3513;47.664;9.162;2022-12-11T02:18:04;-0.80;99.90
6948;DHT22;3513;47.664;9.162;2022-12-11T02:20:56;-0.80;99.90
6948;DHT22;3513;47.664;9.162;2022-12-11T02:23:32;-0.80;99.90
6948;DHT22;3513;47.664;9.162;2022-12-11T02:26:11;-0.80;99.90
6948;DHT22;3513;47.664;9.162;2022-12-11T02:28:49;-0.80;99.90
6948;DHT22;3513;47.664;9.162;2022-12-11T02:36:32;-0.80;99.90
6948;DHT22;3513;47.664;9.162;2022-12-11T02:39:00;-0.70;99.90
6948;DHT22;3513;47.664;9.162;2022-12-11T02:41:28;-0.70;99.90
6948;DHT22;3513;47.664;9.162;2022-12-11T02:43:55;-0.60;99.90
6948;DHT22;3513;47.664;9.162;2022-12-11T02:46:23;-0.70;99.90
6948;DHT22;3513;47.664;9.162;2022-12-11T02:48:50;-0.70;99.90
6948;DHT22;3513;47.664;9.162;2022-12-11T02:51:18;-0.70;99.90
6948;DHT22;3513;47.664;9.162;2022-12-11T02:53:46;-0.60;99.90
6948;DHT22;3513;47.664;9.162;2022-12-11T02:56:17;-0.60;99.90
6948;DHT22;3513;47.664;9.162;2022-12-11T02:58:47;-0.60;99.90
6948;DHT22;3513;47.664;9.162;2022-12-11T03:01:14;-0.50;99.90
6948;DHT22;3513;47.664;9.162;2022-12-11T03:03:40;-0.40;99.90
6948;DHT22;3513;47.664;9.162;2022-12-11T03:06:06;-0.50;99.90
6948;DHT22;3513;47.664;9.162;2022-12-11T03:08:35;-0.50;99.90
6948;DHT22;3513;47.664;9.162;2022-12-11T03:11:00;-0.50;99.90
6948;DHT22;3513;47.664;9.162;2022-12-11T03:13:26;-0.50;99.90
6948;DHT22;3513;47.664;9.162;2022-12-11T03:16:16;-0.60;99.90
6948;DHT22;3513;47.664;9.162;2022-12-11T03:21:48;-0.70;99.90
6948;DHT22;3513;47.664;9.162;2022-12-11T03:24:29;-0.70;99.90
6948;DHT22;3513;47.664;9.162;2022-12-11T03:27:02;-0.90;99.90
6948;DHT22;3513;47.664;9.162;2022-12-11T03:29:46;-0.90;99.90
6948;DHT22;3513;47.664;9.162;2022-12-11T03:32:18;-1.00;99.90
6948;DHT22;3513;47.664;9.162;2022-12-11T03:35:13;-1.00;99.90
6948;DHT22;3513;47.664;9.162;2022-12-11T03:37:41;-1.00;99.90
6948;DHT22;3513;47.664;9.162;2022-12-11T03:40:15;-1.00;99.90
6948;DHT22;3513;47.664;9.162;2022-12-11T03:42:43;-1.00;99.90
6948;DHT22;3513;47.664;9.162;2022-12-11T03:45:12;-1.00;99.90
6948;DHT22;3513;47.664;9.162;2022-12-11T03:47:40;-1.10;99.90
6948;DHT22;3513;47.664;9.162;2022-12-11T03:50:09;-1.10;99.90
6948;DHT22;3513;47.664;9.162;2022-12-11T03:52:36;-1.00;99.90
6948;DHT22;3513;47.664;9.162;2022-12-11T03:55:04;-1.10;99.90
6948;DHT22;3513;47.664;9.162;2022-12-11T03:57:34;-1.20;99.90
6948;DHT22;3513;47.664;9.162;2022-12-11T04:00:00;-1.30;99.90
6948;DHT22;3513;47.664;9.162;2022-12-11T04:02:29;-1.30;99.90
6948;DHT22;3513;47.664;9.162;2022-12-11T04:04:55;-1.30;99.90
6948;DHT22;3513;47.664;9.162;2022-12-11T04:07:20;-1.30;99.90
6948;DHT22;3513;47.664;9.162;2022-12-11T04:09:46;-1.40;99.90
6948;DHT22;3513;47.664;9.162;2022-12-11T04:12:12;-1.50;99.90
6948;DHT22;3513;47.664;9.162;2022-12-11T04:14:37;-1.40;99.90
6948;DHT22;3513;47.664;9.162;2022-12-11T04:17:22;-1.40;99.90
6948;DHT22;3513;47.664;9.162;2022-12-11T04:20:06;-1.30;99.90
6948;DHT22;3513;47.664;9.162;2022-12-11T04:22:50;-1.30;99.90
6948;DHT22;3513;47.664;9.162;2022-12-11T04:25:34;-1.40;99.90
6948;DHT22;3513;47.664;9.162;2022-12-11T04:28:00;-1.50;99.90
6948;DHT22;3513;47.664;9.162;2022-12-11T04:30:25;-1.50;99.90
6948;DHT22;3513;47.664;9.162;2022-12-11T04:32:52;-1.60;99.90
6948;DHT22;3513;47.664;9.162;2022-12-11T04:35:18;-1.60;99.90
6948;DHT22;3513;47.664;9.162;2022-12-11T04:37:44;-1.60;99.90
6948;DHT22;3513;47.664;9.162;2022-12-11T04:40:13;-1.60;99.90
6948;DHT22;3513;47.664;9.162;2022-12-11T04:42:39;-1.60;99.90
6948;DHT22;3513;47.664;9.162;2022-12-11T04:45:06;-1.60;99.90
6948;DHT22;3513;47.664;9.162;2022-12-11T04:47:37;-1.70;99.90
6948;DHT22;3513;47.664;9.162;2022-12-11T04:50:05;-1.80;99.90
6948;DHT22;3513;47.664;9.162;2022-12-11T04:52:31;-1.70;99.90
6948;DHT22;3513;47.664;9.162;2022-12-11T04:54:56;-1.80;99.90
6948;DHT22;3513;47.664;9.162;2022-12-11T04:57:22;-1.80;99.90
6948;DHT22;3513;47.664;9.162;2022-12-11T04:59:48;-1.90;99.90
6948;DHT22;3513;47.664;9.162;2022-12-11T05:02:14;-1.80;99.90
6948;DHT22;3513;47.664;9.162;2022-12-11T05:04:40;-1.80;99.90
6948;DHT22;3513;47.664;9.162;2022-12-11T05:07:05;-1.90;99.90
6948;DHT22;3513;47.664;9.162;2022-12-11T05:09:31;-1.90;99.90
6948;DHT22;3513;47.664;9.162;2022-12-11T05:11:57;-2.00;99.90
6948;DHT22;3513;47.664;9.162;2022-12-11T05:14:23;-2.00;99.90
6948;DHT22;3513;47.664;9.162;2022-12-11T05:16:48;-2.10;99.90
6948;DHT22;3513;47.664;9.162;2022-12-11T05:19:14;-2.10;99.90
6948;DHT22;3513;47.664;9.162;2022-12-11T05:21:39;-2.20;99.90
6948;DHT22;3513;47.664;9.162;2022-12-11T05:24:05;-2.20;99.90
6948;DHT22;3513;47.664;9.162;2022-12-11T05:26:31;-2.30;99.90
6948;DHT22;3513;47.664;9.162;2022-12-11T05:28:56;-2.30;99.90
6948;DHT22;3513;47.664;9.162;2022-12-11T05:31:24;-2.30;99.90
6948;DHT22;3513;47.664;9.162;2022-12-11T05:33:51;-2.40;99.90
6948;DHT22;3513;47.664;9.162;2022-12-11T05:36:21;-2.40;99.90
6948;DHT22;3513;47.664;9.162;2022-12-11T05:38:47;-2.30;99.90
6948;DHT22;3513;47.664;9.162;2022-12-11T05:41:15;-2.30;99.90
6948;DHT22;3513;47.664;9.162;2022-12-11T05:43:41;-2.30;99.90
6948;DHT22;3513;47.664;9.162;2022-12-11T05:46:16;-2.20;99.90
6948;DHT22;3513;47.664;9.162;2022-12-11T05:48:43;-2.20;99.90
6948;DHT22;3513;47.664;9.162;2022-12-11T05:51:10;-2.20;99.90
6948;DHT22;3513;47.664;9.162;2022-12-11T05:53:37;-2.20;99.90
6948;DHT22;3513;47.664;9.162;2022-12-11T05:56:11;-2.20;99.90
6948;DHT22;3513;47.664;9.162;2022-12-11T05:58:38;-2.20;99.90
6948;DHT22;3513;47.664;9.162;2022-12-11T06:01:17;-2.20;99.90
6948;DHT22;3513;47.664;9.162;2022-12-11T06:03:43;-2.30;99.90
6948;DHT22;3513;47.664;9.162;2022-12-11T06:06:09;-2.30;99.90
6948;DHT22;3513;47.664;9.162;2022-12-11T06:08:34;-2.20;99.90
6948;DHT22;3513;47.664;9.162;2022-12-11T06:11:00;-2.20;99.90
6948;DHT22;3513;47.664;9.162;2022-12-11T06:13:26;-2.20;99.90
6948;DHT22;3513;47.664;9.162;2022-12-11T06:15:52;-2.20;99.90
6948;DHT22;3513;47.664;9.162;2022-12-11T06:18:18;-2.20;99.90
6948;DHT22;3513;47.664;9.162;2022-12-11T06:20:43;-2.10;99.90
6948;DHT22;3513;47.664;9.162;2022-12-11T06:23:09;-2.10;99.90
6948;DHT22;3513;47.664;9.162;2022-12-11T06:25:37;-2.10;99.90
6948;DHT22;3513;47.664;9.162;2022-12-11T06:28:03;-2.10;99.90
6948;DHT22;3513;47.664;9.162;2022-12-11T06:30:29;-2.10;99.90
6948;DHT22;3513;47.664;9.162;2022-12-11T06:32:56;-2.00;99.90
6948;DHT22;3513;47.664;9.162;2022-12-11T06:35:22;-2.00;99.90
6948;DHT22;3513;47.664;9.162;2022-12-11T06:37:47;-1.90;99.90
6948;DHT22;3513;47.664;9.162;2022-12-11T06:40:13;-1.80;99.90
6948;DHT22;3513;47.664;9.162;2022-12-11T06:42:39;-1.70;99.90
6948;DHT22;3513;47.664;9.162;2022-12-11T06:45:05;-1.70;99.90
6948;DHT22;3513;47.664;9.162;2022-12-11T06:47:30;-1.70;99.90
6948;DHT22;3513;47.664;9.162;2022-12-11T06:49:57;-1.70;99.90
6948;DHT22;3513;47.664;9.162;2022-12-11T06:52:24;-1.70;99.90
6948;DHT22;3513;47.664;9.162;2022-12-11T06:54:51;-1.70;99.90
6948;DHT22;3513;47.664;9.162;2022-12-11T06:57:17;-1.80;99.90
6948;DHT22;3513;47.664;9.162;2022-12-11T06:59:43;-1.60;99.90
6948;DHT22;3513;47.664;9.162;2022-12-11T07:02:12;-1.70;99.90
6948;DHT22;3513;47.664;9.162;2022-12-11T07:04:38;-1.50;99.90
6948;DHT22;3513;47.664;9.162;2022-12-11T07:07:04;-1.60;99.90
6948;DHT22;3513;47.664;9.162;2022-12-11T07:09:30;-1.70;99.90
6948;DHT22;3513;47.664;9.162;2022-12-11T07:11:55;-1.60;99.90
6948;DHT22;3513;47.664;9.162;2022-12-11T07:14:21;-1.70;99.90
6948;DHT22;3513;47.664;9.162;2022-12-11T07:16:47;-1.80;99.90
6948;DHT22;3513;47.664;9.162;2022-12-11T07:19:12;-1.90;99.90
6948;DHT22;3513;47.664;9.162;2022-12-11T07:21:38;-2.00;99.90
6948;DHT22;3513;47.664;9.162;2022-12-11T07:24:04;-2.10;99.90
6948;DHT22;3513;47.664;9.162;2022-12-11T07:26:29;-2.00;99.90
6948;DHT22;3513;47.664;9.162;2022-12-11T07:28:56;-2.00;99.90
6948;DHT22;3513;47.664;9.162;2022-12-11T07:31:24;-2.00;99.90
6948;DHT22;3513;47.664;9.162;2022-12-11T07:33:54;-2.10;99.90
6948;DHT22;3513;47.664;9.162;2022-12-11T07:36:20;-2.20;99.90
6948;DHT22;3513;47.664;9.162;2022-12-11T07:38:45;-2.30;99.90
6948;DHT22;3513;47.664;9.162;2022-12-11T07:41:12;-2.30;99.90
6948;DHT22;3513;47.664;9.162;2022-12-11T07:43:39;-2.30;99.90
6948;DHT22;3513;47.664;9.162;2022-12-11T07:46:11;-2.30;99.90
6948;DHT22;3513;47.664;9.162;2022-12-11T07:48:38;-2.40;99.90
6948;DHT22;3513;47.664;9.162;2022-12-11T07:51:32;-2.40;99.90
6948;DHT22;3513;47.664;9.162;2022-12-11T07:53:59;-2.50;99.90
6948;DHT22;3513;47.664;9.162;2022-12-11T07:56:26;-2.60;99.90
6948;DHT22;3513;47.664;9.162;2022-12-11T07:58:52;-2.60;99.90
6948;DHT22;3513;47.664;9.162;2022-12-11T08:01:20;-2.70;99.90
6948;DHT22;3513;47.664;9.162;2022-12-11T08:03:46;-2.70;99.90
6948;DHT22;3513;47.664;9.162;2022-12-11T08:06:12;-2.70;99.90
6948;DHT22;3513;47.664;9.162;2022-12-11T08:08:38;-2.50;99.90
6948;DHT22;3513;47.664;9.162;2022-12-11T08:11:08;-2.30;99.90
6948;DHT22;3513;47.664;9.162;2022-12-11T08:13:34;-2.30;99.90
6948;DHT22;3513;47.664;9.162;2022-12-11T08:16:04;-2.50;99.90
6948;DHT22;3513;47.664;9.162;2022-12-11T08:18:30;-2.50;99.90
6948;DHT22;3513;47.664;9.162;2022-12-11T08:20:55;-2.50;99.90
6948;DHT22;3513;47.664;9.162;2022-12-11T08:23:21;-2.40;99.90
6948;DHT22;3513;47.664;9.162;2022-12-11T08:25:46;-2.40;99.90
6948;DHT22;3513;47.664;9.162;2022-12-11T08:28:12;-2.50;99.90
6948;DHT22;3513;47.664;9.162;2022-12-11T08:30:38;-2.50;99.90
6948;DHT22;3513;47.664;9.162;2022-12-11T08:33:04;-2.50;99.90
6948;DHT22;3513;47.664;9.162;2022-12-11T08:35:30;-2.40;99.90
6948;DHT22;3513;47.664;9.162;2022-12-11T08:37:56;-2.30;99.90
6948;DHT22;3513;47.664;9.162;2022-12-11T08:40:22;-2.20;99.90
6948;DHT22;3513;47.664;9.162;2022-12-11T08:42:47;-2.20;99.90
6948;DHT22;3513;47.664;9.162;2022-12-11T08:45:13;-2.20;99.90
6948;DHT22;3513;47.664;9.162;2022-12-11T08:47:38;-2.30;99.90
6948;DHT22;3513;47.664;9.162;2022-12-11T08:50:04;-2.30;99.90
6948;DHT22;3513;47.664;9.162;2022-12-11T08:52:30;-2.20;99.90
6948;DHT22;3513;47.664;9.162;2022-12-11T08:54:58;-2.10;99.90
6948;DHT22;3513;47.664;9.162;2022-12-11T08:57:23;-2.00;99.90
6948;DHT22;3513;47.664;9.162;2022-12-11T08:59:49;-2.00;99.90
6948;DHT22;3513;47.664;9.162;2022-12-11T09:02:14;-2.00;99.90
6948;DHT22;3513;47.664;9.162;2022-12-11T09:04:40;-1.90;99.90
6948;DHT22;3513;47.664;9.162;2022-12-11T09:07:06;-1.80;99.90
6948;DHT22;3513;47.664;9.162;2022-12-11T09:09:31;-1.70;99.90
6948;DHT22;3513;47.664;9.162;2022-12-11T09:11:57;-1.70;99.90
6948;DHT22;3513;47.664;9.162;2022-12-11T09:14:23;-1.60;99.90
6948;DHT22;3513;47.664;9.162;2022-12-11T09:16:49;-1.60;99.90
6948;DHT22;3513;47.664;9.162;2022-12-11T09:19:14;-1.50;99.90
6948;DHT22;3513;47.664;9.162;2022-12-11T09:21:41;-1.50;99.90
6948;DHT22;3513;47.664;9.162;2022-12-11T09:24:09;-1.50;99.90
6948;DHT22;3513;47.664;9.162;2022-12-11T09:26:35;-1.40;99.90
6948;DHT22;3513;47.664;9.162;2022-12-11T09:29:02;-1.20;99.90
6948;DHT22;3513;47.664;9.162;2022-12-11T09:31:31;-1.10;99.90
6948;DHT22;3513;47.664;9.162;2022-12-11T09:33:59;-1.20;99.90
6948;DHT22;3513;47.664;9.162;2022-12-11T09:36:26;-1.30;99.90
6948;DHT22;3513;47.664;9.162;2022-12-11T09:38:52;-1.20;99.90
6948;DHT22;3513;47.664;9.162;2022-12-11T09:44:14;-1.00;99.90
6948;DHT22;3513;47.664;9.162;2022-12-11T09:46:41;-0.90;99.90
6948;DHT22;3513;47.664;9.162;2022-12-11T09:49:37;-1.00;99.90
6948;DHT22;3513;47.664;9.162;2022-12-11T09:52:21;-0.90;99.90
6948;DHT22;3513;47.664;9.162;2022-12-11T09:55:00;-0.90;99.90
6948;DHT22;3513;47.664;9.162;2022-12-11T09:57:56;-0.90;99.90
6948;DHT22;3513;47.664;9.162;2022-12-11T10:06:28;-0.70;99.90
6948;DHT22;3513;47.664;9.162;2022-12-11T10:08:48;-0.70;99.90
6948;DHT22;3513;47.664;9.162;2022-12-11T10:11:26;-0.60;99.90
6948;DHT22;3513;47.664;9.162;2022-12-11T10:17:33;-0.40;99.90
6948;DHT22;3513;47.664;9.162;2022-12-11T10:20:30;-0.40;99.90
6948;DHT22;3513;47.664;9.162;2022-12-11T10:22:59;-0.30;99.90
6948;DHT22;3513;47.664;9.162;2022-12-11T10:25:31;-0.30;99.90
6948;DHT22;3513;47.664;9.162;2022-12-11T10:28:07;-0.30;99.90
6948;DHT22;3513;47.664;9.162;2022-12-11T10:30:36;-0.30;99.90
6948;DHT22;3513;47.664;9.162;2022-12-11T10:33:58;-0.10;99.90
6948;DHT22;3513;47.664;9.162;2022-12-11T10:36:30;0.10;99.90
6948;DHT22;3513;47.664;9.162;2022-12-11T10:38:57;-0.20;99.90
6948;DHT22;3513;47.664;9.162;2022-12-11T10:41:49;-0.10;99.90
6948;DHT22;3513;47.664;9.162;2022-12-11T10:44:24;0.00;99.90
6948;DHT22;3513;47.664;9.162;2022-12-11T10:47:10;-0.10;99.90
6948;DHT22;3513;47.664;9.162;2022-12-11T10:49:37;-0.20;99.90
6948;DHT22;3513;47.664;9.162;2022-12-11T10:52:22;-0.10;99.90
6948;DHT22;3513;47.664;9.162;2022-12-11T10:54:59;-0.10;99.90
6948;DHT22;3513;47.664;9.162;2022-12-11T10:57:31;-0.10;99.90
6948;DHT22;3513;47.664;9.162;2022-12-11T10:59:58;-0.10;99.90
6948;DHT22;3513;47.664;9.162;2022-12-11T11:02:29;0.10;99.90
6948;DHT22;3513;47.664;9.162;2022-12-11T11:04:57;0.00;99.90
6948;DHT22;3513;47.664;9.162;2022-12-11T11:07:28;-0.10;99.90
6948;DHT22;3513;47.664;9.162;2022-12-11T11:12:38;-0.10;99.90
6948;DHT22;3513;47.664;9.162;2022-12-11T11:15:12;-0.20;99.90
6948;DHT22;3513;47.664;9.162;2022-12-11T11:17:45;-0.30;99.90
6948;DHT22;3513;47.664;9.162;2022-12-11T11:20:14;-0.20;99.90
6948;DHT22;3513;47.664;9.162;2022-12-11T11:22:44;-0.10;99.90
6948;DHT22;3513;47.664;9.162;2022-12-11T11:25:17;-0.10;99.90
6948;DHT22;3513;47.664;9.162;2022-12-11T11:27:54;0.00;99.90
6948;DHT22;3513;47.664;9.162;2022-12-11T11:30:40;0.20;99.90
6948;DHT22;3513;47.664;9.162;2022-12-11T11:33:16;0.40;99.90
6948;DHT22;3513;47.664;9.162;2022-12-11T11:38:33;0.50;99.90
6948;DHT22;3513;47.664;9.162;2022-12-11T11:43:45;0.70;99.90
6948;DHT22;3513;47.664;9.162;2022-12-11T11:46:16;0.70;99.30
6948;DHT22;3513;47.664;9.162;2022-12-11T11:48:59;0.80;99.90
6948;DHT22;3513;47.664;9.162;2022-12-11T11:51:36;0.90;98.70
6948;DHT22;3513;47.664;9.162;2022-12-11T11:54:14;0.80;99.30
6948;DHT22;3513;47.664;9.162;2022-12-11T11:56:42;0.80;99.50
6948;DHT22;3513;47.664;9.162;2022-12-11T11:59:27;0.80;99.50
6948;DHT22;3513;47.664;9.162;2022-12-11T12:01:56;0.90;99.70
6948;DHT22;3513;47.664;9.162;2022-12-11T12:04:23;1.00;98.90
6948;DHT22;3513;47.664;9.162;2022-12-11T12:09:59;1.00;98.70
6948;DHT22;3513;47.664;9.162;2022-12-11T12:15:09;0.90;98.90
6948;DHT22;3513;47.664;9.162;2022-12-11T12:23:20;1.00;99.20
6948;DHT22;3513;47.664;9.162;2022-12-11T12:28:50;0.90;98.20
6948;DHT22;3513;47.664;9.162;2022-12-11T12:46:10;1.60;97.10
6948;DHT22;3513;47.664;9.162;2022-12-11T12:48:38;1.60;96.40
6948;DHT22;3513;47.664;9.162;2022-12-11T12:51:04;1.60;96.30
6948;DHT22;3513;47.664;9.162;2022-12-11T12:53:33;1.90;96.20
6948;DHT22;3513;47.664;9.162;2022-12-11T12:56:01;2.10;96.60
6948;DHT22;3513;47.664;9.162;2022-12-11T12:58:29;2.50;96.10
6948;DHT22;3513;47.664;9.162;2022-12-11T13:03:56;2.90;94.30
6948;DHT22;3513;47.664;9.162;2022-12-11T13:06:29;3.10;93.20
6948;DHT22;3513;47.664;9.162;2022-12-11T13:08:56;3.30;93.10
6948;DHT22;3513;47.664;9.162;2022-12-11T13:11:31;3.50;91.60
6948;DHT22;3513;47.664;9.162;2022-12-11T13:14:20;3.80;92.20
6948;DHT22;3513;47.664;9.162;2022-12-11T13:16:48;4.10;91.20
6948;DHT22;3513;47.664;9.162;2022-12-11T13:24:45;5.00;88.10
6948;DHT22;3513;47.664;9.162;2022-12-11T13:32:48;5.30;82.10
6948;DHT22;3513;47.664;9.162;2022-12-11T13:35:18;5.40;81.90
6948;DHT22;3513;47.664;9.162;2022-12-11T13:37:45;5.40;80.60
6948;DHT22;3513;47.664;9.162;2022-12-11T13:40:14;5.50;80.10
6948;DHT22;3513;47.664;9.162;2022-12-11T13:48:23;5.70;79.20
6948;DHT22;3513;47.664;9.162;2022-12-11T13:50:52;6.00;78.00
6948;DHT22;3513;47.664;9.162;2022-12-11T13:53:19;6.10;77.10
6948;DHT22;3513;47.664;9.162;2022-12-11T13:55:46;6.10;75.40
6948;DHT22;3513;47.664;9.162;2022-12-11T13:58:20;6.10;76.60
6948;DHT22;3513;47.664;9.162;2022-12-11T14:01:09;7.20;76.40
6948;DHT22;3513;47.664;9.162;2022-12-11T14:03:38;5.60;75.70
6948;DHT22;3513;47.664;9.162;2022-12-11T14:06:08;5.60;75.90
6948;DHT22;3513;47.664;9.162;2022-12-11T14:08:36;5.60;77.00
6948;DHT22;3513;47.664;9.162;2022-12-11T14:11:04;5.60;74.90
6948;DHT22;3513;47.664;9.162;2022-12-11T14:13:36;5.70;76.50
6948;DHT22;3513;47.664;9.162;2022-12-11T14:16:05;5.80;74.70
6948;DHT22;3513;47.664;9.162;2022-12-11T14:18:32;5.80;75.70
6948;DHT22;3513;47.664;9.162;2022-12-11T14:21:02;5.90;76.50
6948;DHT22;3513;47.664;9.162;2022-12-11T14:23:30;6.00;76.20
6948;DHT22;3513;47.664;9.162;2022-12-11T14:28:53;6.20;77.10
6948;DHT22;3513;47.664;9.162;2022-12-11T14:31:35;6.50;75.20
6948;DHT22;3513;47.664;9.162;2022-12-11T14:36:48;6.60;73.20
6948;DHT22;3513;47.664;9.162;2022-12-11T14:41:59;6.40;75.20
6948;DHT22;3513;47.664;9.162;2022-12-11T14:44:29;6.40;74.10
6948;DHT22;3513;47.664;9.162;2022-12-11T14:46:59;6.40;75.00
6948;DHT22;3513;47.664;9.162;2022-12-11T14:49:56;6.30;73.80
6948;DHT22;3513;47.664;9.162;2022-12-11T14:52:28;6.20;74.90
6948;DHT22;3513;47.664;9.162;2022-12-11T14:55:19;6.10;75.10
6948;DHT22;3513;47.664;9.162;2022-12-11T14:57:49;5.90;73.30
6948;DHT22;3513;47.664;9.162;2022-12-11T15:00:31;5.90;76.00
6948;DHT22;3513;47.664;9.162;2022-12-11T15:05:51;5.70;74.40
6948;DHT22;3513;47.664;9.162;2022-12-11T15:08:20;5.50;76.30
6948;DHT22;3513;47.664;9.162;2022-12-11T15:11:09;5.20;75.80
6948;DHT22;3513;47.664;9.162;2022-12-11T15:13:50;4.80;75.80
6948;DHT22;3513;47.664;9.162;2022-12-11T15:16:16;4.10;78.30
6948;DHT22;3513;47.664;9.162;2022-12-11T15:18:47;3.40;80.10
6948;DHT22;3513;47.664;9.162;2022-12-11T15:21:13;2.90;83.30
6948;DHT22;3513;47.664;9.162;2022-12-11T15:23:51;2.50;85.60
6948;DHT22;3513;47.664;9.162;2022-12-11T15:26:18;2.20;88.20
6948;DHT22;3513;47.664;9.162;2022-12-11T15:28:44;1.90;90.10
6948;DHT22;3513;47.664;9.162;2022-12-11T15:31:31;1.60;91.10
6948;DHT22;3513;47.664;9.162;2022-12-11T15:33:58;1.50;92.00
6948;DHT22;3513;47.664;9.162;2022-12-11T15:36:32;1.20;92.60
6948;DHT22;3513;47.664;9.162;2022-12-11T15:38:59;1.00;93.60
6948;DHT22;3513;47.664;9.162;2022-12-11T15:41:25;0.80;93.90
6948;DHT22;3513;47.664;9.162;2022-12-11T15:43:52;0.70;94.70
6948;DHT22;3513;47.664;9.162;2022-12-11T15:46:19;0.60;95.40
6948;DHT22;3513;47.664;9.162;2022-12-11T15:48:46;0.40;95.80
6948;DHT22;3513;47.664;9.162;2022-12-11T15:51:13;0.00;96.60
6948;DHT22;3513;47.664;9.162;2022-12-11T15:53:38;0.10;96.90
6948;DHT22;3513;47.664;9.162;2022-12-11T15:56:05;-0.10;97.30
6948;DHT22;3513;47.664;9.162;2022-12-11T15:58:31;-0.20;97.70
6948;DHT22;3513;47.664;9.162;2022-12-11T16:00:57;-0.30;98.00
6948;DHT22;3513;47.664;9.162;2022-12-11T16:03:23;-0.40;98.40
6948;DHT22;3513;47.664;9.162;2022-12-11T16:05:50;-0.50;98.60
6948;DHT22;3513;47.664;9.162;2022-12-11T16:08:20;-0.50;98.70
6948;DHT22;3513;47.664;9.162;2022-12-11T16:10:46;-0.50;99.00
6948;DHT22;3513;47.664;9.162;2022-12-11T16:13:13;-0.50;99.10
6948;DHT22;3513;47.664;9.162;2022-12-11T16:15:41;-0.50;98.70
6948;DHT22;3513;47.664;9.162;2022-12-11T16:18:11;-0.50;98.70
6948;DHT22;3513;47.664;9.162;2022-12-11T16:20:38;-0.70;99.00
6948;DHT22;3513;47.664;9.162;2022-12-11T16:23:04;-0.90;99.60
6948;DHT22;3513;47.664;9.162;2022-12-11T16:25:30;-1.10;99.90
6948;DHT22;3513;47.664;9.162;2022-12-11T16:27:58;-1.10;99.90
6948;DHT22;3513;47.664;9.162;2022-12-11T16:30:25;-1.30;99.90
6948;DHT22;3513;47.664;9.162;2022-12-11T16:32:52;-1.40;99.90
6948;DHT22;3513;47.664;9.162;2022-12-11T16:35:18;-1.50;99.90
6948;DHT22;3513;47.664;9.162;2022-12-11T16:37:47;-1.50;99.90
6948;DHT22;3513;47.664;9.162;2022-12-11T16:40:13;-1.60;99.90
6948;DHT22;3513;47.664;9.162;2022-12-11T16:42:39;-1.50;99.90
6948;DHT22;3513;47.664;9.162;2022-12-11T16:45:14;-2.30;99.90
6948;DHT22;3513;47.664;9.162;2022-12-11T16:47:40;-1.70;99.90
6948;DHT22;3513;47.664;9.162;2022-12-11T16:50:06;-1.80;99.90
6948;DHT22;3513;47.664;9.162;2022-12-11T16:52:32;-1.80;99.90
6948;DHT22;3513;47.664;9.162;2022-12-11T16:54:58;-1.90;99.90
6948;DHT22;3513;47.664;9.162;2022-12-11T16:57:24;-1.80;99.90
6948;DHT22;3513;47.664;9.162;2022-12-11T16:59:50;-1.80;99.90
6948;DHT22;3513;47.664;9.162;2022-12-11T17:02:16;-1.60;99.90
6948;DHT22;3513;47.664;9.162;2022-12-11T17:04:41;-1.70;99.90
6948;DHT22;3513;47.664;9.162;2022-12-11T17:07:07;-1.70;99.90
6948;DHT22;3513;47.664;9.162;2022-12-11T17:09:34;-1.80;99.90
6948;DHT22;3513;47.664;9.162;2022-12-11T17:12:00;-1.70;99.90
6948;DHT22;3513;47.664;9.162;2022-12-11T17:14:26;-1.90;99.90
6948;DHT22;3513;47.664;9.162;2022-12-11T17:16:52;-2.00;99.90
6948;DHT22;3513;47.664;9.162;2022-12-11T17:19:19;-2.10;99.90
6948;DHT22;3513;47.664;9.162;2022-12-11T17:21:45;-2.30;99.90
6948;DHT22;3513;47.664;9.162;2022-12-11T17:24:14;-2.30;99.90
6948;DHT22;3513;47.664;9.162;2022-12-11T17:26:40;-2.30;99.90
6948;DHT22;3513;47.664;9.162;2022-12-11T17:29:06;-2.40;99.90
6948;DHT22;3513;47.664;9.162;2022-12-11T17:31:32;-2.50;99.90
6948;DHT22;3513;47.664;9.162;2022-12-11T17:33:58;-2.70;99.90
6948;DHT22;3513;47.664;9.162;2022-12-11T17:36:25;-2.80;99.90
6948;DHT22;3513;47.664;9.162;2022-12-11T17:38:52;-2.80;99.90
6948;DHT22;3513;47.664;9.162;2022-12-11T17:41:17;-2.80;99.90
6948;DHT22;3513;47.664;9.162;2022-12-11T17:43:45;-2.80;99.90
6948;DHT22;3513;47.664;9.162;2022-12-11T17:46:11;-2.90;99.90
6948;DHT22;3513;47.664;9.162;2022-12-11T17:48:37;-2.90;99.90
6948;DHT22;3513;47.664;9.162;2022-12-11T17:51:05;-2.90;99.90
6948;DHT22;3513;47.664;9.162;2022-12-11T17:53:31;-2.90;99.90
6948;DHT22;3513;47.664;9.162;2022-12-11T17:56:04;-2.70;99.90
6948;DHT22;3513;47.664;9.162;2022-12-11T17:58:30;-2.80;99.90
6948;DHT22;3513;47.664;9.162;2022-12-11T18:00:57;-2.80;99.90